createdAt,value
2022-08-21T00:00:44.202Z,18.04
2022-08-21T00:03:14.911Z,17.99
2022-08-21T00:05:50.716Z,17.90
2022-08-21T00:08:22.858Z,17.86
2022-08-21T00:10:53.206Z,17.72
2022-08-21T00:13:22.471Z,17.66
2022-08-21T00:15:52.562Z,17.82
2022-08-21T00:18:22.464Z,17.81
2022-08-21T00:20:51.719Z,17.72
2022-08-21T00:23:22.591Z,17.68
2022-08-21T00:25:52.123Z,17.68
2022-08-21T00:28:21.290Z,17.70
2022-08-21T00:30:50.544Z,17.49
2022-08-21T00:33:19.784Z,17.41
2022-08-21T00:35:48.990Z,17.31
2022-08-21T00:38:18.164Z,17.29
2022-08-21T00:40:53.251Z,17.36
2022-08-21T00:43:26.159Z,17.32
2022-08-21T00:45:56.329Z,17.16
2022-08-21T00:48:28.264Z,17.16
2022-08-21T00:51:02.157Z,17.14
2022-08-21T00:53:33.088Z,17.19
2022-08-21T00:56:06.895Z,17.12
2022-08-21T00:58:38.031Z,17.02
2022-08-21T01:01:09.083Z,16.98
2022-08-21T01:03:39.672Z,16.94
2022-08-21T01:06:15.336Z,16.87
2022-08-21T01:08:46.922Z,17.01
2022-08-21T01:11:18.636Z,16.80
2022-08-21T01:13:48.357Z,16.70
2022-08-21T01:16:22.184Z,16.65
2022-08-21T01:18:52.473Z,16.51
2022-08-21T01:21:28.477Z,16.45
2022-08-21T01:23:59.751Z,16.80
2022-08-21T01:26:35.583Z,16.81
2022-08-21T01:29:13.754Z,16.68
2022-08-21T01:31:43.037Z,16.51
2022-08-21T01:34:13.362Z,16.61
2022-08-21T01:36:44.216Z,16.50
2022-08-21T01:39:14.108Z,16.65
2022-08-21T01:41:43.701Z,16.85
2022-08-21T01:44:13.009Z,16.79
2022-08-21T01:46:42.322Z,16.70
2022-08-21T01:49:11.498Z,16.48
2022-08-21T01:51:40.726Z,16.57
2022-08-21T01:54:11.539Z,16.45
2022-08-21T01:56:44.867Z,16.50
2022-08-21T01:59:14.683Z,16.42
2022-08-21T02:01:44.234Z,16.34
2022-08-21T02:04:13.752Z,16.32
2022-08-21T02:06:43.540Z,16.33
2022-08-21T02:09:15.660Z,16.34
2022-08-21T02:11:45.838Z,16.34
2022-08-21T02:14:32.437Z,16.14
2022-08-21T02:17:05.475Z,16.21
2022-08-21T02:19:41.040Z,16.24
2022-08-21T02:22:11.489Z,16.00
2022-08-21T02:24:53.604Z,16.04
2022-08-21T02:27:26.524Z,16.03
2022-08-21T02:29:58.239Z,15.87
2022-08-21T02:32:28.079Z,15.76
2022-08-21T02:34:57.698Z,15.69
2022-08-21T02:37:27.156Z,15.86
2022-08-21T02:39:57.871Z,16.04
2022-08-21T02:42:27.121Z,16.13
2022-08-21T02:44:56.406Z,15.77
2022-08-21T02:47:25.622Z,15.86
2022-08-21T02:49:55.413Z,15.89
2022-08-21T02:52:25.169Z,15.75
2022-08-21T02:54:54.431Z,15.45
2022-08-21T02:57:25.049Z,15.31
2022-08-21T02:59:54.209Z,15.30
2022-08-21T03:02:23.695Z,15.57
2022-08-21T03:04:55.970Z,15.60
2022-08-21T03:07:26.348Z,15.54
2022-08-21T03:09:56.156Z,15.51
2022-08-21T03:12:28.500Z,15.49
2022-08-21T03:14:59.836Z,15.71
2022-08-21T03:17:29.847Z,15.74
2022-08-21T03:19:59.924Z,15.46
2022-08-21T03:22:30.851Z,15.40
2022-08-21T03:25:00.745Z,15.47
2022-08-21T03:27:37.577Z,15.55
2022-08-21T03:30:11.199Z,15.35
2022-08-21T03:32:41.119Z,15.35
2022-08-21T03:35:11.598Z,15.37
2022-08-21T03:37:41.159Z,15.35
2022-08-21T03:40:12.954Z,15.36
2022-08-21T03:42:43.764Z,15.29
2022-08-21T03:45:13.212Z,15.28
2022-08-21T03:47:54.832Z,15.34
2022-08-21T03:50:24.684Z,15.09
2022-08-21T03:52:54.126Z,15.24
2022-08-21T03:55:23.488Z,15.21
2022-08-21T03:57:54.222Z,15.19
2022-08-21T04:00:24.695Z,15.00
2022-08-21T04:02:54.318Z,14.95
2022-08-21T04:05:29.157Z,14.89
2022-08-21T04:08:01.505Z,14.86
2022-08-21T04:10:33.241Z,14.86
2022-08-21T04:13:05.122Z,14.83
2022-08-21T04:15:34.455Z,14.73
2022-08-21T04:18:05.149Z,14.93
2022-08-21T04:20:34.525Z,14.91
2022-08-21T04:23:04.471Z,14.90
2022-08-21T04:25:34.040Z,14.69
2022-08-21T04:28:05.558Z,14.71
2022-08-21T04:30:35.299Z,14.90
2022-08-21T04:33:04.978Z,15.03
2022-08-21T04:35:34.436Z,14.94
2022-08-21T04:38:03.634Z,14.81
2022-08-21T04:40:32.955Z,14.84
2022-08-21T04:43:09.358Z,15.08
2022-08-21T04:45:42.026Z,14.94
2022-08-21T04:48:14.441Z,14.88
2022-08-21T04:50:48.587Z,14.93
2022-08-21T04:53:24.543Z,15.22
2022-08-21T04:55:55.898Z,15.10
2022-08-21T04:58:29.197Z,15.03
2022-08-21T05:01:01.967Z,15.09
2022-08-21T05:03:32.900Z,15.33
2022-08-21T05:06:02.459Z,15.28
2022-08-21T05:08:31.735Z,15.33
2022-08-21T05:11:00.940Z,15.52
2022-08-21T05:13:32.909Z,15.43
2022-08-21T05:16:02.244Z,15.70
2022-08-21T05:18:31.591Z,15.76
2022-08-21T05:21:01.191Z,15.98
2022-08-21T05:23:30.372Z,15.96
2022-08-21T05:25:59.611Z,15.94
2022-08-21T05:28:28.994Z,16.12
2022-08-21T05:31:00.575Z,16.19
2022-08-21T05:33:29.867Z,16.19
2022-08-21T05:35:59.072Z,16.43
2022-08-21T05:38:29.637Z,16.47
2022-08-21T05:40:58.917Z,16.61
2022-08-21T05:43:28.421Z,16.78
2022-08-21T05:45:59.043Z,16.85
2022-08-21T05:48:28.273Z,16.99
2022-08-21T05:50:57.592Z,17.00
2022-08-21T05:53:27.575Z,17.08
2022-08-21T05:55:56.774Z,17.17
2022-08-21T05:58:26.066Z,17.29
2022-08-21T06:00:55.241Z,17.32
2022-08-21T06:03:28.687Z,17.43
2022-08-21T06:05:58.042Z,17.44
2022-08-21T06:08:28.195Z,17.65
2022-08-21T06:11:00.916Z,17.70
2022-08-21T06:13:31.186Z,17.85
2022-08-21T06:16:10.702Z,18.07
2022-08-21T06:18:42.283Z,18.33
2022-08-21T06:21:12.487Z,18.55
2022-08-21T06:23:42.516Z,18.75
2022-08-21T06:26:13.627Z,18.92
2022-08-21T06:28:44.008Z,19.06
2022-08-21T06:31:16.484Z,19.12
2022-08-21T06:33:47.369Z,19.30
2022-08-21T06:40:49.049Z,19.79
2022-08-21T06:43:19.890Z,19.89
2022-08-21T06:45:49.058Z,19.90
2022-08-21T06:48:19.527Z,20.00
2022-08-21T06:50:50.762Z,20.09
2022-08-21T06:53:22.247Z,20.22
2022-08-21T06:55:51.282Z,20.25
2022-08-21T06:58:24.498Z,20.18
2022-08-21T07:00:57.523Z,20.11
2022-08-21T07:03:33.218Z,20.34
2022-08-21T07:06:04.122Z,20.60
2022-08-21T07:08:33.211Z,20.91
2022-08-21T07:11:09.642Z,21.08
2022-08-21T07:13:39.093Z,21.19
2022-08-21T07:16:09.297Z,21.40
2022-08-21T07:18:41.539Z,21.64
2022-08-21T07:21:12.098Z,21.62
2022-08-21T07:23:58.341Z,21.48
2022-08-21T07:27:49.691Z,21.53
2022-08-21T07:31:16.892Z,21.56
2022-08-21T07:33:46.992Z,21.89
2022-08-21T07:36:18.426Z,22.29
2022-08-21T07:38:47.649Z,22.69
2022-08-21T07:41:20.092Z,23.11
2022-08-21T07:43:49.410Z,23.45
2022-08-21T07:46:22.745Z,23.66
2022-08-21T07:48:53.628Z,23.90
2022-08-21T07:51:30.137Z,24.11
2022-08-21T07:54:34.425Z,24.30
2022-08-21T07:57:04.277Z,24.46
2022-08-21T07:59:33.400Z,24.55
2022-08-21T08:02:02.673Z,24.61
2022-08-21T08:04:33.425Z,24.58
2022-08-21T08:07:30.536Z,24.51
2022-08-21T08:10:00.151Z,24.53
2022-08-21T08:12:30.575Z,24.47
2022-08-21T08:15:00.387Z,24.44
2022-08-21T08:17:30.612Z,24.35
2022-08-21T08:20:00.673Z,24.25
2022-08-21T08:23:00.113Z,24.12
2022-08-21T08:25:36.328Z,24.05
2022-08-21T08:28:16.561Z,24.03
2022-08-21T08:30:48.582Z,24.09
2022-08-21T08:33:19.441Z,24.21
2022-08-21T08:35:52.875Z,24.33
2022-08-21T08:41:39.308Z,24.58
2022-08-21T08:44:14.794Z,24.70
2022-08-21T08:47:01.104Z,24.77
2022-08-21T08:49:59.496Z,24.75
2022-08-21T08:52:32.921Z,24.72
2022-08-21T08:55:09.906Z,24.63
2022-08-21T08:57:52.328Z,24.53
2022-08-21T09:00:25.202Z,24.39
2022-08-21T09:02:59.820Z,24.24
2022-08-21T09:05:35.609Z,24.05
2022-08-21T09:08:27.761Z,24.00
2022-08-21T09:11:05.731Z,24.07
2022-08-21T09:13:48.247Z,23.93
2022-08-21T09:16:32.212Z,23.81
2022-08-21T09:19:12.356Z,23.55
2022-08-21T09:22:41.668Z,23.32
2022-08-21T09:25:23.261Z,23.49
2022-08-21T09:28:00.583Z,23.37
2022-08-21T09:30:33.168Z,23.09
2022-08-21T09:33:02.372Z,23.01
2022-08-21T09:35:32.943Z,23.31
2022-08-21T09:38:08.753Z,23.63
2022-08-21T09:40:43.578Z,23.92
2022-08-21T09:43:22.026Z,24.31
2022-08-21T09:46:03.839Z,24.47
2022-08-21T09:48:49.047Z,24.54
2022-08-21T09:51:21.215Z,24.58
2022-08-21T09:53:56.997Z,24.70
2022-08-21T09:56:51.671Z,24.58
2022-08-21T09:59:36.786Z,24.32
2022-08-21T10:02:30.492Z,24.32
2022-08-21T10:05:17.564Z,24.18
2022-08-21T10:07:48.731Z,23.95
2022-08-21T10:10:21.682Z,23.67
2022-08-21T10:13:00.010Z,24.23
2022-08-21T10:15:42.997Z,24.63
2022-08-21T10:18:22.431Z,24.52
2022-08-21T10:22:01.938Z,24.92
2022-08-21T10:24:51.454Z,24.79
2022-08-21T10:28:01.009Z,24.94
2022-08-21T10:31:02.416Z,24.48
2022-08-21T10:33:43.381Z,24.72
2022-08-21T10:36:21.335Z,24.89
2022-08-21T10:39:26.759Z,24.50
2022-08-21T10:42:27.938Z,24.68
2022-08-21T10:45:23.701Z,24.70
2022-08-21T10:47:59.282Z,24.91
2022-08-21T10:50:37.274Z,24.81
2022-08-21T10:53:32.999Z,25.07
2022-08-21T10:56:19.343Z,25.20
2022-08-21T10:59:02.177Z,24.93
2022-08-21T11:01:49.093Z,24.76
2022-08-21T11:04:32.129Z,24.66
2022-08-21T11:07:21.954Z,24.81
2022-08-21T11:09:52.642Z,24.99
2022-08-21T11:12:35.515Z,25.37
2022-08-21T11:15:27.044Z,25.17
2022-08-21T11:18:16.715Z,25.29
2022-08-21T11:20:58.971Z,25.05
2022-08-21T11:23:42.010Z,24.80
2022-08-21T11:26:17.903Z,24.84
2022-08-21T11:28:54.050Z,25.19
2022-08-21T11:31:42.973Z,25.75
2022-08-21T11:34:31.978Z,25.76
2022-08-21T11:37:12.604Z,25.63
2022-08-21T11:39:56.095Z,25.60
2022-08-21T11:42:35.322Z,26.05
2022-08-21T11:45:24.448Z,26.03
2022-08-21T11:48:09.705Z,26.08
2022-08-21T11:50:54.158Z,26.03
2022-08-21T11:53:38.648Z,25.69
2022-08-21T11:56:30.023Z,25.77
2022-08-21T11:59:10.575Z,25.52
2022-08-21T12:01:44.097Z,25.83
2022-08-21T12:04:27.402Z,25.97
2022-08-21T12:06:59.339Z,25.82
2022-08-21T12:09:37.765Z,26.07
2022-08-21T12:12:15.299Z,25.44
2022-08-21T12:14:47.290Z,25.73
2022-08-21T12:17:26.204Z,26.00
2022-08-21T12:20:26.154Z,26.39
2022-08-21T12:23:05.227Z,26.33
2022-08-21T12:25:45.032Z,26.26
2022-08-21T12:28:23.439Z,26.15
2022-08-21T12:31:21.186Z,26.14
2022-08-21T12:34:00.392Z,26.19
2022-08-21T12:36:44.384Z,25.45
2022-08-21T12:39:20.527Z,25.87
2022-08-21T12:42:01.235Z,25.50
2022-08-21T12:44:41.141Z,25.52
2022-08-21T12:47:23.838Z,24.83
2022-08-21T12:50:01.177Z,24.76
2022-08-21T12:52:38.934Z,24.55
2022-08-21T12:55:27.216Z,24.73
2022-08-21T12:58:00.161Z,24.87
2022-08-21T13:00:31.639Z,24.63
2022-08-21T13:03:32.294Z,24.87
2022-08-21T13:06:01.534Z,24.57
2022-08-21T13:08:31.716Z,24.62
2022-08-21T13:11:14.876Z,24.42
2022-08-21T13:13:53.914Z,24.44
2022-08-21T13:16:28.406Z,24.89
2022-08-21T13:19:03.387Z,24.93
2022-08-21T13:21:36.377Z,24.92
2022-08-21T13:24:42.402Z,25.66
2022-08-21T13:27:21.369Z,25.54
2022-08-21T13:30:09.804Z,25.38
2022-08-21T13:32:47.150Z,25.27
2022-08-21T13:35:20.478Z,25.67
2022-08-21T13:37:53.004Z,25.85
2022-08-21T13:40:28.926Z,26.22
2022-08-21T13:42:59.390Z,26.14
2022-08-21T13:45:35.188Z,26.05
2022-08-21T13:48:06.843Z,26.36
2022-08-21T13:50:40.136Z,26.13
2022-08-21T13:53:26.103Z,26.53
2022-08-21T13:56:00.341Z,25.95
2022-08-21T13:58:32.885Z,25.53
2022-08-21T14:01:06.562Z,25.71
2022-08-21T14:03:40.880Z,25.98
2022-08-21T14:06:17.372Z,25.71
2022-08-21T14:08:53.758Z,25.07
2022-08-21T14:11:23.672Z,25.28
2022-08-21T14:14:01.349Z,25.31
2022-08-21T14:16:45.904Z,26.82
2022-08-21T14:19:23.208Z,26.64
2022-08-21T14:21:55.304Z,28.23
2022-08-21T14:24:31.233Z,29.33
2022-08-21T14:27:06.659Z,29.02
2022-08-21T14:29:39.746Z,27.46
2022-08-21T14:32:24.700Z,29.24
2022-08-21T14:34:55.504Z,29.83
2022-08-21T14:37:28.771Z,30.43
2022-08-21T14:39:58.192Z,28.56
2022-08-21T14:42:28.449Z,28.53
2022-08-21T14:45:10.641Z,29.54
2022-08-21T14:47:41.539Z,26.44
2022-08-21T14:50:11.896Z,26.05
2022-08-21T14:52:42.234Z,25.45
2022-08-21T14:55:14.895Z,25.27
2022-08-21T14:57:47.126Z,25.03
2022-08-21T15:00:20.502Z,25.17
2022-08-21T15:02:51.329Z,24.79
2022-08-21T15:05:31.442Z,25.10
2022-08-21T15:08:02.756Z,24.98
2022-08-21T15:10:34.951Z,25.37
2022-08-21T15:13:05.521Z,25.09
2022-08-21T15:15:41.650Z,24.81
2022-08-21T15:18:12.432Z,24.55
2022-08-21T15:20:43.061Z,24.34
2022-08-21T15:23:18.103Z,23.97
2022-08-21T15:25:50.321Z,24.27
2022-08-21T15:28:21.422Z,23.93
2022-08-21T15:30:52.238Z,23.99
2022-08-21T15:33:23.845Z,23.88
2022-08-21T15:35:53.550Z,23.50
2022-08-21T15:38:24.948Z,23.57
2022-08-21T15:41:01.127Z,23.59
2022-08-21T15:43:35.370Z,23.85
2022-08-21T15:46:06.233Z,23.85
2022-08-21T15:48:37.421Z,23.83
2022-08-21T15:51:07.626Z,23.72
2022-08-21T15:53:39.680Z,23.67
2022-08-21T15:56:22.254Z,23.58
2022-08-21T15:58:58.546Z,23.62
2022-08-21T16:01:28.349Z,23.83
2022-08-21T16:04:08.358Z,23.74
2022-08-21T16:06:53.462Z,23.55
2022-08-21T16:09:25.452Z,23.67
2022-08-21T16:11:54.809Z,23.82
2022-08-21T16:14:24.168Z,23.47
2022-08-21T16:16:58.128Z,23.49
2022-08-21T16:19:30.861Z,23.38
2022-08-21T16:22:01.099Z,23.50
2022-08-21T16:24:30.805Z,23.50
2022-08-21T16:27:13.686Z,23.22
2022-08-21T16:29:57.660Z,23.41
2022-08-21T16:32:29.535Z,23.16
2022-08-21T16:35:00.814Z,22.98
2022-08-21T16:37:30.680Z,23.18
2022-08-21T16:40:01.371Z,23.28
2022-08-21T16:42:34.591Z,23.09
2022-08-21T16:45:05.527Z,23.39
2022-08-21T16:47:34.981Z,23.52
2022-08-21T16:50:10.248Z,23.32
2022-08-21T16:52:48.003Z,23.26
2022-08-21T16:55:19.393Z,22.93
2022-08-21T16:57:48.876Z,23.10
2022-08-21T17:00:18.697Z,22.82
2022-08-21T17:02:55.334Z,22.87
2022-08-21T17:05:26.177Z,22.62
2022-08-21T17:07:55.468Z,22.56
2022-08-21T17:10:24.776Z,22.55
2022-08-21T17:12:58.756Z,22.58
2022-08-21T17:15:33.151Z,22.52
2022-08-21T17:18:03.257Z,22.42
2022-08-21T17:20:35.218Z,22.33
2022-08-21T17:23:05.480Z,22.31
2022-08-21T17:25:35.487Z,22.30
2022-08-21T17:28:06.169Z,22.24
2022-08-21T17:30:35.890Z,22.17
2022-08-21T17:33:05.501Z,22.08
2022-08-21T17:35:36.154Z,21.99
2022-08-21T17:38:05.585Z,21.93
2022-08-21T17:40:37.250Z,21.92
2022-08-21T17:43:13.115Z,21.89
2022-08-21T17:45:44.562Z,21.85
2022-08-21T17:48:22.238Z,21.76
2022-08-21T17:50:56.331Z,21.62
2022-08-21T17:53:27.084Z,21.52
2022-08-21T17:56:23.859Z,21.44
2022-08-21T17:58:55.637Z,21.35
2022-08-21T18:01:27.085Z,21.27
2022-08-21T18:03:56.358Z,21.19
2022-08-21T18:06:27.337Z,21.11
2022-08-21T18:08:57.916Z,21.10
2022-08-21T18:11:31.577Z,21.05
2022-08-21T18:14:07.610Z,20.92
2022-08-21T18:16:43.674Z,20.82
2022-08-21T18:22:08.485Z,20.77
2022-08-21T18:24:46.580Z,20.64
2022-08-21T18:27:16.698Z,20.58
2022-08-21T18:29:47.826Z,20.53
2022-08-21T18:32:31.016Z,20.55
2022-08-21T18:35:05.534Z,20.46
2022-08-21T18:37:45.890Z,20.39
2022-08-21T18:40:37.967Z,20.47
2022-08-21T18:43:15.528Z,20.27
2022-08-21T18:45:45.233Z,20.12
2022-08-21T18:48:17.693Z,20.53
2022-08-21T18:50:48.774Z,20.29
2022-08-21T18:53:27.649Z,20.11
2022-08-21T18:56:04.806Z,20.02
2022-08-21T18:58:35.383Z,19.76
2022-08-21T19:01:04.980Z,19.66
2022-08-21T19:03:36.410Z,19.69
2022-08-21T19:06:09.780Z,19.64
2022-08-21T19:08:42.741Z,19.66
2022-08-21T19:11:12.020Z,19.71
2022-08-21T19:13:43.745Z,19.70
2022-08-21T19:16:13.075Z,19.71
2022-08-21T19:18:46.384Z,19.75
2022-08-21T19:21:16.487Z,19.76
2022-08-21T19:23:52.632Z,19.59
2022-08-21T19:26:24.342Z,19.51
2022-08-21T19:28:59.541Z,19.51
2022-08-21T19:31:33.561Z,19.37
2022-08-21T19:34:08.403Z,19.32
2022-08-21T19:36:39.950Z,19.27
2022-08-21T19:39:15.542Z,19.35
2022-08-21T19:41:51.225Z,19.48
2022-08-21T19:44:24.821Z,19.53
2022-08-21T19:46:58.167Z,19.53
2022-08-21T19:49:33.274Z,19.52
2022-08-21T19:52:12.951Z,19.54
2022-08-21T19:54:44.576Z,19.52
2022-08-21T19:57:15.454Z,19.54
2022-08-21T19:59:45.925Z,19.65
2022-08-21T20:02:23.207Z,19.60
2022-08-21T20:04:55.163Z,19.60
2022-08-21T20:07:27.771Z,19.54
2022-08-21T20:09:58.748Z,19.61
2022-08-21T20:12:29.630Z,19.54
2022-08-21T20:14:59.571Z,19.69
2022-08-21T20:17:33.319Z,19.48
2022-08-21T20:20:05.649Z,19.38
2022-08-21T20:22:36.580Z,19.51
2022-08-21T20:25:08.426Z,19.48
2022-08-21T20:27:43.164Z,19.32
2022-08-21T20:30:15.129Z,19.29
2022-08-21T20:32:48.701Z,19.30
2022-08-21T20:35:20.550Z,19.31
2022-08-21T20:37:58.977Z,19.24
2022-08-21T20:40:33.097Z,19.20
2022-08-21T20:43:03.859Z,19.26
2022-08-21T20:45:36.359Z,19.24
2022-08-21T20:48:12.165Z,19.23
2022-08-21T20:50:47.462Z,19.07
2022-08-21T20:53:25.111Z,19.08
2022-08-21T20:55:59.343Z,19.26
2022-08-21T20:58:37.382Z,19.14
2022-08-21T21:01:09.963Z,18.97
2022-08-21T21:03:45.184Z,18.88
2022-08-21T21:06:20.165Z,18.79
2022-08-21T21:08:55.774Z,18.79
2022-08-21T21:11:34.362Z,18.81
2022-08-21T21:14:15.665Z,18.81
2022-08-21T21:16:52.145Z,18.83
2022-08-21T21:19:30.173Z,18.82
2022-08-21T21:22:11.791Z,18.75
2022-08-21T21:24:53.394Z,18.76
2022-08-21T21:27:39.208Z,18.72
2022-08-21T21:30:14.474Z,18.71
2022-08-21T21:32:44.713Z,18.68
2022-08-21T21:35:32.582Z,18.58
2022-08-21T21:38:04.374Z,18.55
2022-08-21T21:40:49.709Z,18.50
2022-08-21T21:43:33.831Z,18.47
2022-08-21T21:46:25.807Z,18.43
2022-08-21T21:49:28.604Z,18.40
2022-08-21T21:52:10.946Z,18.40
2022-08-21T21:55:03.771Z,18.36
2022-08-21T21:57:53.119Z,18.42
2022-08-21T22:00:29.613Z,18.50
2022-08-21T22:03:13.214Z,18.35
2022-08-21T22:05:57.537Z,18.27
2022-08-21T22:08:40.276Z,18.21
2022-08-21T22:11:29.317Z,18.42
2022-08-21T22:14:10.155Z,18.29
2022-08-21T22:16:42.484Z,18.36
2022-08-21T22:19:27.367Z,18.15
2022-08-21T22:22:04.802Z,18.15
2022-08-21T22:24:40.420Z,18.15
2022-08-21T22:27:16.988Z,18.18
2022-08-21T22:29:51.286Z,18.14
2022-08-21T22:32:30.806Z,18.12
2022-08-21T22:35:18.871Z,18.12
2022-08-21T22:37:51.328Z,18.13
2022-08-21T22:40:27.486Z,18.11
2022-08-21T22:43:07.359Z,18.05
2022-08-21T22:45:58.938Z,17.98
2022-08-21T22:48:36.207Z,17.99
2022-08-21T22:51:09.316Z,17.96
2022-08-21T22:53:44.568Z,17.99
2022-08-21T22:56:31.661Z,17.94
2022-08-21T22:59:06.035Z,17.97
2022-08-21T23:01:45.077Z,17.93
2022-08-21T23:04:25.791Z,17.84
2022-08-21T23:06:58.335Z,17.89
2022-08-21T23:09:36.786Z,17.88
2022-08-21T23:12:32.945Z,17.90
2022-08-21T23:15:09.816Z,17.91
2022-08-21T23:20:56.122Z,17.91
2022-08-21T23:23:28.848Z,17.85
2022-08-21T23:29:24.674Z,17.77
2022-08-21T23:32:13.642Z,17.76
2022-08-21T23:35:04.221Z,17.76
2022-08-21T23:37:51.969Z,17.73
2022-08-21T23:40:51.150Z,17.71
2022-08-21T23:43:37.523Z,17.73
2022-08-21T23:46:33.375Z,17.81
2022-08-21T23:49:17.849Z,18.00
2022-08-21T23:52:00.506Z,17.67
2022-08-21T23:54:44.765Z,17.54
2022-08-21T23:57:31.784Z,17.42
